Time;durP1;ratioP1;P1;durP2;ratioP2;P2;SDS_P1;SDS_P2;PMS_P1;PMS_P2;Temp;Humidity;BMP_temperature;BMP_pressure;BME280_temperature;BME280_humidity;BME280_pressure;Samples;Min_cycle;Max_cycle;Signal;HPM_P1;HPM_P2
2021/05/06 00:07:55;;;;;;;5.97;3.10;;;6.20;99.90;;;;;;6265460;22;21113;-62
2021/05/06 00:32:22;;;;;;;6.83;2.53;;;6.20;99.90;;;;;;6201177;23;20579;-61
2021/05/06 00:34:48;;;;;;;6.70;2.40;;;6.20;99.90;;;;;;6197438;22;21143;-61
2021/05/06 00:37:15;;;;;;;8.33;2.73;;;6.10;99.90;;;;;;6196029;22;20624;-60
2021/05/06 00:39:47;;;;;;;7.43;2.53;;;6.10;99.90;;;;;;6202217;22;20239;-61
2021/05/06 00:42:34;;;;;;;10.17;2.73;;;6.10;99.90;;;;;;6201400;22;20534;-63
2021/05/06 01:01:17;;;;;;;6.23;2.60;;;6.00;99.90;;;;;;6194609;23;20559;-62
2021/05/06 01:06:15;;;;;;;7.00;2.47;;;6.00;99.90;;;;;;6200033;23;20576;-60
2021/05/06 01:09:07;;;;;;;7.33;2.60;;;5.90;99.90;;;;;;6203502;23;20568;-61
2021/05/06 01:12:01;;;;;;;7.20;2.40;;;6.00;99.90;;;;;;6209473;22;20617;-60
2021/05/06 01:14:18;;;;;;;9.13;3.03;;;6.00;99.90;;;;;;6209030;22;20733;-62
2021/05/06 01:16:44;;;;;;;6.70;2.30;;;5.90;99.90;;;;;;6201970;23;20575;-61
2021/05/06 01:19:09;;;;;;;6.57;2.50;;;5.80;99.90;;;;;;6202769;23;20442;-62
2021/05/06 01:21:35;;;;;;;8.63;3.17;;;5.80;99.90;;;;;;6174031;23;20160;-61
2021/05/06 01:24:02;;;;;;;10.47;2.57;;;5.80;99.90;;;;;;6197631;23;20211;-62
2021/05/06 01:26:35;;;;;;;5.97;2.40;;;5.90;99.90;;;;;;6144268;22;20560;-62
2021/05/06 01:29:05;;;;;;;6.27;2.60;;;5.90;99.90;;;;;;6197303;23;20512;-62
2021/05/06 01:31:34;;;;;;;7.37;2.80;;;5.80;99.90;;;;;;6198011;23;20593;-62
2021/05/06 01:34:10;;;;;;;9.73;3.27;;;5.80;99.90;;;;;;6196328;22;20934;-62
2021/05/06 01:36:50;;;;;;;10.23;2.70;;;5.80;99.90;;;;;;6200342;23;20579;-61
2021/05/06 01:42:12;;;;;;;8.23;2.60;;;5.70;99.90;;;;;;6212747;23;20514;-62
2021/05/06 01:58:04;;;;;;;5.83;2.60;;;5.70;99.90;;;;;;6203760;23;20841;-61
2021/05/06 02:00:33;;;;;;;4.47;2.20;;;5.70;99.90;;;;;;6198773;23;20583;-61
2021/05/06 02:03:00;;;;;;;7.10;2.43;;;5.60;99.90;;;;;;6174777;23;20612;-62
2021/05/06 02:05:26;;;;;;;7.50;2.63;;;5.70;99.90;;;;;;6201503;22;20916;-61
2021/05/06 02:07:52;;;;;;;7.17;2.43;;;5.70;99.90;;;;;;6202894;23;20551;-61
2021/05/06 02:10:22;;;;;;;5.83;2.00;;;5.60;99.90;;;;;;6213596;22;20504;-61
2021/05/06 02:12:48;;;;;;;6.17;2.47;;;5.60;99.90;;;;;;6203771;23;20601;-62
2021/05/06 02:15:22;;;;;;;6.03;2.83;;;5.60;99.90;;;;;;6172777;23;20954;-62
2021/05/06 02:17:48;;;;;;;7.50;2.60;;;5.50;99.90;;;;;;6176147;23;20258;-62
2021/05/06 02:20:15;;;;;;;7.10;2.70;;;5.60;99.90;;;;;;6198363;23;20688;-61
2021/05/06 02:22:41;;;;;;;5.70;2.30;;;5.60;99.90;;;;;;6198567;22;20551;-64
2021/05/06 02:25:08;;;;;;;5.40;2.53;;;5.60;99.90;;;;;;6171457;23;20681;-61
2021/05/06 02:27:34;;;;;;;8.83;2.60;;;5.70;99.90;;;;;;6201283;23;20575;-61
2021/05/06 02:30:00;;;;;;;7.10;2.53;;;5.60;99.90;;;;;;6176253;23;21056;-62
2021/05/06 02:32:28;;;;;;;7.70;2.50;;;5.60;99.90;;;;;;6199745;22;20628;-63
2021/05/06 02:34:57;;;;;;;6.20;2.40;;;5.60;99.90;;;;;;6201922;23;20206;-62
2021/05/06 02:37:22;;;;;;;5.03;2.60;;;5.60;99.90;;;;;;6169724;23;20659;-62
2021/05/06 02:39:48;;;;;;;8.57;2.57;;;5.60;99.90;;;;;;6175608;23;20555;-61
2021/05/06 02:42:14;;;;;;;6.00;2.70;;;5.70;99.90;;;;;;6195953;23;20563;-62
2021/05/06 02:44:41;;;;;;;3.00;2.10;;;5.70;99.90;;;;;;6172248;23;20657;-62
2021/05/06 02:47:07;;;;;;;9.80;2.60;;;5.70;99.90;;;;;;6203750;23;20610;-61
2021/05/06 02:49:33;;;;;;;4.30;2.13;;;5.70;99.90;;;;;;6205544;23;20531;-61
2021/05/06 02:52:24;;;;;;;7.63;2.73;;;5.70;99.90;;;;;;6177849;23;20563;-61
2021/05/06 02:54:52;;;;;;;3.00;2.17;;;5.60;99.90;;;;;;6198500;22;20621;-61
2021/05/06 03:05:11;;;;;;;5.63;2.50;;;5.70;99.90;;;;;;6202275;23;20669;-61
2021/05/06 03:07:39;;;;;;;4.93;2.30;;;5.70;99.90;;;;;;6177214;22;20556;-62
2021/05/06 03:10:36;;;;;;;6.60;3.03;;;5.70;99.90;;;;;;6176199;22;20877;-61
2021/05/06 03:13:10;;;;;;;7.07;2.20;;;5.70;99.90;;;;;;6202548;22;20559;-61
2021/05/06 03:23:49;;;;;;;5.60;2.80;;;5.60;99.90;;;;;;6198854;23;20614;-62
2021/05/06 03:26:16;;;;;;;8.07;2.17;;;5.50;99.90;;;;;;6200374;23;20662;-62
2021/05/06 03:28:48;;;;;;;2.47;2.20;;;5.50;99.90;;;;;;6203275;22;20567;-61
2021/05/06 03:31:24;;;;;;;4.50;1.90;;;5.50;99.90;;;;;;6202189;22;20575;-62
2021/05/06 03:44:42;;;;;;;5.13;1.93;;;5.40;99.90;;;;;;6201485;23;21034;-61
2021/05/06 04:17:28;;;;;;;6.20;2.43;;;5.50;99.90;;;;;;6198386;23;20679;-61
2021/05/06 04:38:55;;;;;;;7.17;2.30;;;5.50;99.90;;;;;;6203301;23;20530;-62
2021/05/06 04:54:43;;;;;;;5.07;2.50;;;5.60;99.90;;;;;;6208151;23;20747;-62
2021/05/06 05:03:21;;;;;;;5.37;2.20;;;5.80;99.90;;;;;;6181625;22;20707;-60
2021/05/06 05:05:47;;;;;;;5.93;2.17;;;5.80;99.90;;;;;;6185681;22;20599;-62
2021/05/06 05:08:17;;;;;;;4.60;2.10;;;5.90;99.90;;;;;;6202953;22;20536;-61
2021/05/06 05:11:02;;;;;;;5.70;2.37;;;5.90;99.90;;;;;;6172584;22;20160;-61
2021/05/06 05:13:41;;;;;;;5.57;2.50;;;5.80;99.90;;;;;;6165776;22;20595;-62
2021/05/06 05:19:57;;;;;;;6.10;2.10;;;5.90;99.90;;;;;;6177329;22;20612;-61
2021/05/06 05:27:04;;;;;;;3.90;2.10;;;6.10;99.90;;;;;;6168838;23;21119;-62
2021/05/06 05:29:30;;;;;;;3.33;2.07;;;6.20;99.90;;;;;;6200434;23;20547;-62
2021/05/06 05:31:57;;;;;;;6.03;3.03;;;6.20;99.90;;;;;;6175046;23;20537;-62
2021/05/06 05:36:56;;;;;;;8.00;2.27;;;6.20;99.90;;;;;;6188231;23;20586;-63
2021/05/06 05:39:51;;;;;;;3.60;2.20;;;6.20;99.90;;;;;;6197683;22;20540;-62
2021/05/06 05:55:31;;;;;;;3.87;2.40;;;6.50;99.90;;;;;;6199512;23;20655;-62
2021/05/06 05:57:57;;;;;;;5.00;2.63;;;6.60;99.90;;;;;;6175682;23;20571;-63
2021/05/06 06:00:22;;;;;;;3.77;2.40;;;6.60;99.90;;;;;;6198719;22;20983;-62
2021/05/06 06:02:48;;;;;;;4.53;2.03;;;6.70;99.90;;;;;;6170595;22;20243;-62
2021/05/06 06:05:14;;;;;;;4.23;2.40;;;6.60;99.90;;;;;;6182357;23;20689;-62
2021/05/06 06:07:39;;;;;;;5.77;2.33;;;6.70;99.90;;;;;;6193216;22;20157;-63
2021/05/06 06:10:06;;;;;;;3.53;2.20;;;6.70;99.90;;;;;;6201860;23;21028;-63
2021/05/06 06:12:31;;;;;;;3.00;2.53;;;6.80;99.90;;;;;;6196178;23;20213;-61
2021/05/06 06:15:05;;;;;;;3.87;2.10;;;6.90;99.90;;;;;;6200568;23;20703;-62
2021/05/06 06:17:42;;;;;;;8.43;2.80;;;6.90;99.90;;;;;;6200330;22;20152;-62
2021/05/06 06:20:09;;;;;;;11.53;2.47;;;6.90;99.90;;;;;;6202085;23;20636;-61
2021/05/06 06:22:37;;;;;;;8.93;2.80;;;7.10;99.90;;;;;;6200020;23;20555;-61
2021/05/06 06:25:03;;;;;;;6.30;2.30;;;7.10;99.90;;;;;;6199219;22;20668;-62
2021/05/06 06:27:30;;;;;;;7.10;2.87;;;7.20;99.90;;;;;;6176208;23;20562;-62
2021/05/06 06:29:56;;;;;;;4.60;2.27;;;7.10;99.90;;;;;;6199601;22;21128;-62
2021/05/06 06:32:22;;;;;;;12.83;2.50;;;7.20;99.90;;;;;;6201022;22;20577;-62
2021/05/06 06:34:47;;;;;;;2.90;2.13;;;7.20;99.90;;;;;;6198872;22;20599;-62
2021/05/06 06:37:15;;;;;;;7.33;2.50;;;7.20;99.90;;;;;;6201042;22;20192;-62
2021/05/06 06:39:42;;;;;;;5.10;2.40;;;7.30;99.90;;;;;;6205978;23;20536;-62
2021/05/06 06:42:10;;;;;;;4.20;2.23;;;7.40;99.90;;;;;;6204522;23;20562;-62
2021/05/06 06:44:37;;;;;;;7.07;2.30;;;7.40;99.90;;;;;;6202364;23;20599;-62
2021/05/06 06:47:05;;;;;;;7.17;2.50;;;7.50;99.90;;;;;;6198617;23;20644;-62
2021/05/06 06:49:32;;;;;;;5.40;2.20;;;7.40;99.90;;;;;;6195085;23;21115;-63
2021/05/06 06:51:59;;;;;;;3.50;2.17;;;7.50;99.90;;;;;;6197618;23;20578;-62
2021/05/06 06:54:26;;;;;;;4.27;2.67;;;7.60;99.90;;;;;;6197964;23;20617;-61
2021/05/06 06:56:51;;;;;;;4.53;2.73;;;7.60;99.90;;;;;;6196162;22;21487;-62
2021/05/06 06:59:17;;;;;;;3.67;2.80;;;7.60;99.90;;;;;;6200631;23;20540;-60
2021/05/06 07:01:45;;;;;;;11.60;3.07;;;7.70;99.90;;;;;;6196762;23;20198;-61
2021/05/06 07:04:13;;;;;;;5.10;2.50;;;7.80;99.90;;;;;;6168985;23;20604;-61
2021/05/06 07:06:39;;;;;;;5.70;2.80;;;7.80;99.90;;;;;;6194892;23;20705;-62
2021/05/06 07:09:08;;;;;;;7.10;2.60;;;7.80;99.90;;;;;;6191821;22;20983;-61
2021/05/06 07:11:33;;;;;;;7.23;2.83;;;7.80;99.90;;;;;;6195740;23;20556;-61
2021/05/06 07:13:59;;;;;;;5.97;2.47;;;7.90;99.90;;;;;;6174120;23;20590;-60
2021/05/06 07:16:25;;;;;;;4.50;2.40;;;7.90;99.90;;;;;;6199336;23;20255;-62
2021/05/06 07:18:50;;;;;;;6.90;2.87;;;8.00;99.90;;;;;;6197962;23;20157;-62
2021/05/06 07:21:18;;;;;;;4.10;2.77;;;8.10;99.90;;;;;;6194576;23;20259;-62
2021/05/06 07:23:43;;;;;;;3.03;2.20;;;8.20;99.90;;;;;;6197699;23;20204;-62
2021/05/06 07:26:09;;;;;;;4.87;2.23;;;8.20;99.90;;;;;;6194219;23;20571;-62
2021/05/06 07:28:41;;;;;;;5.10;2.33;;;8.40;99.90;;;;;;6195663;22;20179;-62
2021/05/06 07:31:09;;;;;;;4.53;3.17;;;8.40;99.90;;;;;;6193712;23;20259;-63
2021/05/06 07:33:35;;;;;;;4.90;2.97;;;8.50;99.90;;;;;;6167026;23;20595;-61
2021/05/06 07:36:01;;;;;;;6.50;2.77;;;8.60;99.90;;;;;;6194194;23;20575;-63
2021/05/06 07:38:32;;;;;;;5.00;2.33;;;8.70;99.90;;;;;;6198221;23;21011;-63
2021/05/06 07:41:00;;;;;;;6.00;2.53;;;8.70;99.90;;;;;;6191537;23;20582;-65
2021/05/06 07:43:27;;;;;;;5.93;2.67;;;8.70;99.90;;;;;;6191728;23;21211;-65
2021/05/06 07:45:53;;;;;;;6.90;2.50;;;8.80;99.90;;;;;;6193687;23;20567;-66
2021/05/06 07:48:18;;;;;;;5.93;1.90;;;8.70;99.90;;;;;;6195925;23;20584;-65
2021/05/06 07:50:44;;;;;;;5.80;2.20;;;8.70;99.90;;;;;;6196415;23;20539;-65
2021/05/06 07:53:12;;;;;;;3.40;2.00;;;8.80;99.90;;;;;;6193812;22;20535;-64
2021/05/06 07:55:38;;;;;;;5.40;2.17;;;8.80;99.90;;;;;;6193295;22;20505;-65
2021/05/06 07:58:05;;;;;;;4.93;2.53;;;8.80;99.90;;;;;;6167927;23;20564;-66
2021/05/06 08:00:34;;;;;;;4.03;2.10;;;8.80;99.90;;;;;;6194517;23;20206;-65
2021/05/06 08:03:00;;;;;;;6.80;1.93;;;8.80;99.90;;;;;;6195658;23;21084;-66
2021/05/06 08:05:26;;;;;;;6.83;3.13;;;8.90;99.90;;;;;;6196913;23;20640;-67
2021/05/06 08:07:54;;;;;;;4.43;2.03;;;9.00;99.90;;;;;;6197582;23;20700;-65
2021/05/06 08:10:23;;;;;;;6.00;2.07;;;8.90;99.90;;;;;;6196321;23;20626;-66
2021/05/06 08:12:50;;;;;;;7.87;1.93;;;8.90;99.90;;;;;;6171943;22;20573;-60
2021/05/06 08:15:16;;;;;;;6.20;2.03;;;8.90;99.90;;;;;;6197730;22;20622;-63
2021/05/06 08:17:42;;;;;;;5.23;1.97;;;9.00;99.90;;;;;;6211541;22;20538;-61
2021/05/06 08:20:10;;;;;;;7.47;1.67;;;9.00;99.90;;;;;;6216947;23;20205;-62
2021/05/06 08:22:37;;;;;;;5.33;2.37;;;9.00;99.90;;;;;;6206179;23;20885;-61
2021/05/06 08:25:07;;;;;;;6.63;2.10;;;9.10;99.90;;;;;;6201841;23;20660;-63
2021/05/06 08:27:33;;;;;;;7.73;2.20;;;9.20;99.90;;;;;;6176188;22;20578;-65
2021/05/06 08:30:00;;;;;;;6.30;2.50;;;9.20;99.90;;;;;;6170396;23;20571;-63
2021/05/06 08:32:26;;;;;;;3.83;2.20;;;9.20;99.90;;;;;;6177565;22;554954;-62
2021/05/06 08:34:52;;;;;;;3.80;1.77;;;9.20;99.90;;;;;;6167594;23;20592;-62
2021/05/06 08:37:18;;;;;;;4.90;1.67;;;9.30;99.90;;;;;;6194851;23;21076;-62
2021/05/06 08:39:43;;;;;;;3.70;1.93;;;9.40;99.90;;;;;;6200204;23;20427;-62
2021/05/06 08:42:11;;;;;;;3.87;1.90;;;9.50;99.90;;;;;;6196413;23;20156;-65
2021/05/06 08:44:40;;;;;;;5.70;2.10;;;9.50;99.90;;;;;;6197791;22;20974;-65
2021/05/06 08:47:14;;;;;;;4.50;2.07;;;9.40;99.90;;;;;;6196112;22;20556;-61
2021/05/06 08:49:43;;;;;;;4.00;1.60;;;9.40;99.90;;;;;;6199385;23;20531;-62
2021/05/06 08:52:15;;;;;;;4.90;2.10;;;9.50;99.90;;;;;;6195016;23;20995;-62
2021/05/06 08:54:46;;;;;;;6.73;1.87;;;9.50;99.90;;;;;;6192880;23;21159;-64
2021/05/06 08:57:13;;;;;;;5.83;1.97;;;9.60;99.90;;;;;;6167362;23;20603;-61
2021/05/06 08:59:38;;;;;;;4.00;1.60;;;9.60;99.90;;;;;;6192280;22;20616;-62
2021/05/06 09:02:11;;;;;;;6.30;2.10;;;9.70;99.90;;;;;;6197275;23;20547;-61
2021/05/06 09:04:39;;;;;;;3.93;1.80;;;9.70;99.90;;;;;;6199826;23;20295;-62
2021/05/06 09:07:11;;;;;;;3.10;2.07;;;9.90;99.90;;;;;;6196251;23;20588;-62
2021/05/06 09:09:43;;;;;;;5.90;1.97;;;9.90;99.90;;;;;;6196565;23;20955;-62
2021/05/06 09:12:09;;;;;;;5.37;1.90;;;10.00;99.90;;;;;;6196909;23;20515;-62
2021/05/06 09:14:45;;;;;;;4.37;2.20;;;10.00;99.90;;;;;;6197295;23;20587;-61
2021/05/06 09:17:33;;;;;;;2.67;1.93;;;10.10;99.90;;;;;;6174613;23;21155;-62
2021/05/06 09:20:23;;;;;;;6.90;1.97;;;10.20;99.90;;;;;;6175865;23;20575;-62
2021/05/06 09:22:50;;;;;;;5.50;1.93;;;10.20;99.90;;;;;;6202127;23;20499;-62
2021/05/06 09:25:32;;;;;;;4.83;1.83;;;10.30;99.90;;;;;;6200323;23;20619;-62
2021/05/06 09:28:10;;;;;;;8.30;2.00;;;10.40;99.90;;;;;;6201140;23;20504;-62
2021/05/06 09:30:46;;;;;;;6.00;1.77;;;10.40;99.90;;;;;;6201346;23;20563;-62
2021/05/06 09:33:12;;;;;;;9.93;2.33;;;10.40;99.90;;;;;;6203123;23;20583;-62
2021/05/06 09:35:45;;;;;;;3.60;1.70;;;10.50;99.90;;;;;;6172160;23;20594;-65
2021/05/06 09:38:28;;;;;;;6.10;2.03;;;10.60;99.90;;;;;;6205352;23;20140;-65
2021/05/06 09:40:57;;;;;;;2.70;1.63;;;10.60;99.90;;;;;;6201234;22;20500;-64
2021/05/06 09:43:30;;;;;;;3.40;1.60;;;10.60;99.90;;;;;;6202259;23;20615;-64
2021/05/06 09:45:58;;;;;;;3.57;1.90;;;10.60;99.90;;;;;;6203970;23;20586;-65
2021/05/06 09:48:24;;;;;;;2.93;1.70;;;10.50;99.90;;;;;;6204102;23;20558;-64
2021/05/06 09:51:01;;;;;;;2.33;1.30;;;10.50;99.90;;;;;;6202579;22;20879;-66
2021/05/06 09:53:31;;;;;;;3.50;1.73;;;10.40;99.90;;;;;;6200988;23;20207;-66
2021/05/06 09:56:03;;;;;;;3.77;2.37;;;10.40;99.90;;;;;;6201330;23;20580;-64
2021/05/06 09:58:33;;;;;;;2.60;1.53;;;10.30;99.90;;;;;;6201584;23;20496;-65
2021/05/06 10:01:10;;;;;;;5.27;1.87;;;10.20;99.90;;;;;;6206919;23;20500;-65
2021/05/06 10:03:38;;;;;;;2.10;1.43;;;10.20;99.90;;;;;;6178703;23;20611;-64
2021/05/06 10:06:29;;;;;;;5.83;1.73;;;10.30;99.90;;;;;;6182042;23;20930;-62
2021/05/06 10:09:04;;;;;;;4.33;1.67;;;10.40;99.90;;;;;;6203560;23;20936;-62
2021/05/06 10:11:30;;;;;;;4.43;1.50;;;10.60;99.90;;;;;;6205454;23;20510;-61
2021/05/06 10:13:58;;;;;;;3.53;2.20;;;10.70;99.90;;;;;;6206622;23;20599;-62
2021/05/06 10:16:25;;;;;;;2.43;1.70;;;10.80;99.90;;;;;;6203040;23;21370;-61
2021/05/06 10:18:51;;;;;;;7.13;2.03;;;10.70;99.90;;;;;;6203624;23;20555;-64
2021/05/06 10:21:21;;;;;;;2.30;1.70;;;10.50;99.90;;;;;;6177854;22;20564;-63
2021/05/06 10:23:49;;;;;;;2.47;1.70;;;10.40;99.90;;;;;;6201302;23;20204;-62
2021/05/06 10:26:14;;;;;;;2.73;1.47;;;10.10;99.90;;;;;;6200188;23;20627;-62
2021/05/06 10:28:40;;;;;;;2.93;1.43;;;10.00;99.90;;;;;;6200742;23;20531;-61
2021/05/06 10:31:08;;;;;;;1.60;1.50;;;9.80;99.90;;;;;;6202706;23;20172;-62
2021/05/06 10:33:42;;;;;;;1.80;0.93;;;9.70;99.90;;;;;;6177318;23;20602;-62
2021/05/06 10:36:12;;;;;;;1.20;0.90;;;9.70;99.90;;;;;;6203818;23;20562;-63
2021/05/06 10:38:41;;;;;;;2.80;1.23;;;9.70;99.90;;;;;;6202410;22;20566;-62
2021/05/06 10:41:29;;;;;;;2.50;1.10;;;9.80;99.90;;;;;;6173213;23;21124;-62
2021/05/06 10:44:00;;;;;;;1.23;1.10;;;9.90;99.90;;;;;;6172974;23;20630;-68
2021/05/06 10:47:04;;;;;;;2.27;1.20;;;9.90;99.90;;;;;;6176443;23;20650;-66
2021/05/06 10:49:50;;;;;;;4.23;1.73;;;10.00;99.90;;;;;;6204026;23;20566;-65
2021/05/06 10:52:19;;;;;;;2.03;1.70;;;10.20;99.90;;;;;;6208265;23;20560;-65
2021/05/06 10:54:50;;;;;;;2.80;1.30;;;10.50;99.90;;;;;;6195113;22;20594;-67
2021/05/06 10:57:16;;;;;;;3.07;1.77;;;10.80;99.90;;;;;;6198173;23;20575;-66
2021/05/06 10:59:46;;;;;;;3.03;1.47;;;11.00;99.90;;;;;;6180684;22;20903;-66
2021/05/06 11:02:40;;;;;;;5.00;1.77;;;11.10;99.90;;;;;;6179346;23;20593;-66
2021/05/06 11:05:34;;;;;;;2.00;1.43;;;11.30;99.90;;;;;;6175638;23;20702;-67
2021/05/06 11:08:06;;;;;;;1.70;1.50;;;11.50;99.90;;;;;;6201354;23;20570;-66
2021/05/06 11:10:52;;;;;;;1.50;1.33;;;11.60;99.90;;;;;;6207991;23;20548;-67
2021/05/06 11:13:23;;;;;;;2.20;1.33;;;11.70;99.90;;;;;;6197765;23;20571;-66
2021/05/06 11:15:50;;;;;;;3.10;1.50;;;11.90;99.90;;;;;;6200405;23;20559;-65
2021/05/06 11:18:44;;;;;;;3.97;1.50;;;11.80;99.90;;;;;;6180950;23;20555;-65
2021/05/06 11:21:33;;;;;;;3.70;2.03;;;11.80;99.90;;;;;;6206652;23;20548;-65
2021/05/06 11:24:40;;;;;;;2.87;1.47;;;11.70;99.90;;;;;;6203146;22;20660;-67
2021/05/06 11:27:10;;;;;;;1.53;1.23;;;11.60;99.90;;;;;;6202932;23;20587;-67
2021/05/06 11:29:38;;;;;;;3.87;1.43;;;11.60;99.90;;;;;;6202064;22;20539;-64
2021/05/06 11:32:04;;;;;;;2.07;1.33;;;11.60;99.90;;;;;;6167470;22;20705;-62
2021/05/06 11:34:38;;;;;;;2.50;1.53;;;11.70;99.90;;;;;;6163782;23;20607;-62
2021/05/06 11:37:09;;;;;;;1.30;1.20;;;11.80;99.90;;;;;;6189057;23;21195;-62
2021/05/06 11:39:35;;;;;;;2.10;1.40;;;12.00;99.90;;;;;;6141742;23;20602;-63
2021/05/06 11:42:08;;;;;;;2.17;1.40;;;12.20;99.90;;;;;;6193374;23;20546;-62
2021/05/06 11:44:35;;;;;;;1.53;1.20;;;12.40;99.90;;;;;;6196100;23;20394;-62
2021/05/06 11:47:03;;;;;;;4.07;1.60;;;12.40;99.90;;;;;;6195656;23;20582;-61
2021/05/06 11:49:29;;;;;;;2.37;1.47;;;12.50;99.90;;;;;;6204641;22;20952;-61
2021/05/06 11:51:54;;;;;;;1.70;1.17;;;12.40;99.90;;;;;;6216318;22;20570;-60
2021/05/06 11:54:23;;;;;;;2.10;1.30;;;12.40;99.90;;;;;;6210692;23;20196;-62
2021/05/06 11:56:57;;;;;;;2.63;1.57;;;12.40;99.90;;;;;;6201481;23;20211;-61
2021/05/06 11:59:28;;;;;;;3.63;1.40;;;12.40;99.90;;;;;;6204519;23;20532;-61
2021/05/06 12:01:55;;;;;;;2.03;1.30;;;12.20;99.90;;;;;;6205690;23;20628;-62
2021/05/06 12:04:26;;;;;;;1.77;1.27;;;12.30;99.90;;;;;;6195566;22;20760;-61
2021/05/06 12:06:53;;;;;;;3.67;1.60;;;12.20;99.90;;;;;;6168049;23;20634;-61
2021/05/06 12:09:31;;;;;;;4.60;1.70;;;12.10;99.90;;;;;;6168031;23;21159;-61
2021/05/06 12:11:57;;;;;;;1.83;1.27;;;12.10;99.90;;;;;;6172073;23;20559;-60
2021/05/06 12:14:32;;;;;;;2.13;1.17;;;12.00;99.90;;;;;;6192957;22;20598;-60
2021/05/06 12:16:57;;;;;;;2.53;1.20;;;11.80;99.90;;;;;;6194624;23;20594;-60
2021/05/06 12:19:23;;;;;;;2.77;1.30;;;11.70;99.90;;;;;;6168872;23;20637;-59
2021/05/06 12:21:56;;;;;;;3.30;1.23;;;11.40;99.90;;;;;;6192589;23;20559;-60
2021/05/06 12:24:36;;;;;;;3.90;1.80;;;11.30;99.90;;;;;;6198320;22;20651;-60
2021/05/06 12:27:20;;;;;;;4.00;1.27;;;11.10;99.90;;;;;;6169078;23;20605;-60
2021/05/06 12:29:47;;;;;;;2.63;1.50;;;11.00;99.90;;;;;;6197254;23;20906;-60
2021/05/06 12:32:19;;;;;;;3.13;1.60;;;10.90;99.90;;;;;;6194951;23;20567;-61
2021/05/06 12:34:45;;;;;;;4.20;1.70;;;10.90;99.90;;;;;;6163789;22;20653;-92
2021/05/06 12:37:15;;;;;;;3.20;1.70;;;11.00;99.90;;;;;;6166358;23;20577;-91
2021/05/06 12:39:41;;;;;;;3.20;1.50;;;11.20;99.90;;;;;;6165120;23;20554;-92
2021/05/06 12:42:08;;;;;;;6.30;1.83;;;11.50;99.90;;;;;;6165307;22;20603;-94
2021/05/06 12:44:45;;;;;;;4.00;1.50;;;11.80;99.90;;;;;;6161843;23;20647;-93
2021/05/06 12:47:27;;;;;;;1.60;1.47;;;12.00;99.90;;;;;;6132347;23;21028;-93
2021/05/06 12:50:07;;;;;;;2.80;1.60;;;12.40;99.90;;;;;;6127058;23;20577;-92
2021/05/06 12:52:38;;;;;;;3.07;1.50;;;12.80;99.90;;;;;;6157439;22;20577;-93
2021/05/06 12:55:24;;;;;;;3.10;1.20;;;13.00;99.90;;;;;;6126130;23;20657;-93
2021/05/06 12:58:15;;;;;;;2.60;1.20;;;13.20;99.90;;;;;;6129094;23;20640;-93
2021/05/06 13:00:44;;;;;;;3.40;1.83;;;13.60;99.90;;;;;;6135041;23;20566;-92
2021/05/06 13:03:13;;;;;;;1.33;1.10;;;13.80;99.90;;;;;;6155812;22;20627;-92
2021/05/06 13:05:42;;;;;;;2.43;1.13;;;14.00;99.90;;;;;;6160910;23;20580;-92
2021/05/06 13:08:07;;;;;;;2.67;1.40;;;14.20;99.90;;;;;;6122675;23;20572;-93
2021/05/06 13:10:37;;;;;;;3.10;2.00;;;14.10;99.90;;;;;;6137201;23;20585;-95
2021/05/06 13:13:07;;;;;;;2.87;1.43;;;14.30;99.90;;;;;;6269292;22;20207;-69
2021/05/06 13:15:53;;;;;;;2.70;2.50;;;14.20;99.90;;;;;;6248094;22;20915;-70
2021/05/06 13:18:19;;;;;;;4.33;1.50;;;14.30;99.90;;;;;;6277437;22;20505;-70
2021/05/06 13:20:47;;;;;;;3.70;1.70;;;14.00;99.90;;;;;;6276170;22;20536;-70
2021/05/06 13:23:12;;;;;;;3.50;2.47;;;13.90;99.90;;;;;;6272949;22;20670;-68
2021/05/06 13:26:06;;;;;;;6.87;1.50;;;13.90;99.90;;;;;;6278875;22;20684;-67
2021/05/06 13:28:32;;;;;;;3.60;1.73;;;13.80;99.90;;;;;;6285113;22;20154;-68
2021/05/06 13:31:07;;;;;;;2.33;1.50;;;14.00;99.90;;;;;;6281285;22;20600;-68
2021/05/06 13:33:33;;;;;;;7.63;1.67;;;14.30;99.90;;;;;;6277941;22;20592;-70
2021/05/06 13:36:03;;;;;;;2.07;1.30;;;14.20;99.90;;;;;;6279114;22;20580;-70
2021/05/06 13:38:48;;;;;;;4.70;1.57;;;14.30;99.90;;;;;;6290447;22;20225;-69
2021/05/06 13:41:14;;;;;;;2.00;1.57;;;14.50;99.90;;;;;;6305593;22;20568;-71
2021/05/06 13:43:40;;;;;;;2.27;1.23;;;14.60;99.90;;;;;;6275619;22;20616;-69
2021/05/06 13:46:11;;;;;;;2.80;1.33;;;14.70;99.90;;;;;;6307562;22;20653;-69
2021/05/06 13:48:37;;;;;;;2.20;1.33;;;15.10;99.90;;;;;;6286832;22;21029;-69
2021/05/06 13:51:10;;;;;;;1.87;1.07;;;15.40;99.90;;;;;;6288166;22;20838;-69
2021/05/06 13:53:40;;;;;;;2.13;1.20;;;15.60;99.90;;;;;;6282229;22;21054;-68
2021/05/06 13:56:06;;;;;;;8.00;1.50;;;15.80;99.90;;;;;;6285278;22;20993;-70
2021/05/06 13:58:32;;;;;;;2.87;1.23;;;15.90;99.90;;;;;;6284325;22;20544;-70
2021/05/06 14:00:59;;;;;;;1.93;1.30;;;15.90;99.90;;;;;;6286996;22;20532;-69
2021/05/06 14:03:26;;;;;;;2.60;1.20;;;15.70;99.90;;;;;;6281923;22;20587;-69
2021/05/06 14:05:52;;;;;;;2.30;1.30;;;15.30;99.90;;;;;;6285021;22;20580;-69
2021/05/06 14:08:19;;;;;;;2.77;1.20;;;15.10;99.90;;;;;;6288907;22;20563;-69
2021/05/06 14:10:45;;;;;;;3.03;0.90;;;14.80;99.90;;;;;;6286602;22;20186;-67
2021/05/06 14:13:18;;;;;;;1.77;1.07;;;14.50;99.90;;;;;;6281681;22;20599;-63
2021/05/06 14:15:45;;;;;;;1.87;1.07;;;14.60;99.90;;;;;;6308298;22;20946;-64
2021/05/06 14:18:13;;;;;;;1.20;1.10;;;15.00;99.90;;;;;;6281005;22;20568;-66
2021/05/06 14:20:41;;;;;;;1.70;1.00;;;15.40;99.90;;;;;;6284616;22;20548;-66
2021/05/06 14:23:07;;;;;;;2.90;1.10;;;15.80;99.90;;;;;;6286574;22;20607;-65
2021/05/06 14:25:36;;;;;;;2.63;1.33;;;16.20;99.90;;;;;;6283350;22;20698;-66
2021/05/06 14:28:06;;;;;;;3.00;0.93;;;16.80;99.90;;;;;;6314294;22;20979;-66
2021/05/06 14:30:33;;;;;;;0.63;0.63;;;17.20;99.90;;;;;;6288448;22;20579;-65
2021/05/06 14:32:59;;;;;;;4.80;1.17;;;17.80;96.10;;;;;;6287333;22;21001;-66
2021/05/06 14:35:25;;;;;;;4.77;1.47;;;18.10;97.20;;;;;;6279519;22;20852;-65
2021/05/06 14:37:50;;;;;;;1.60;1.20;;;18.20;95.90;;;;;;6306953;22;20566;-66
2021/05/06 14:40:16;;;;;;;2.60;1.37;;;18.10;97.80;;;;;;6304876;22;20622;-68
2021/05/06 14:42:42;;;;;;;3.30;1.57;;;17.70;97.20;;;;;;6308153;22;20522;-68
2021/05/06 14:45:09;;;;;;;2.73;1.40;;;17.20;97.90;;;;;;6283810;22;20213;-68
2021/05/06 14:47:39;;;;;;;3.73;1.90;;;16.80;99.30;;;;;;6282031;22;20557;-72
2021/05/06 14:50:10;;;;;;;3.80;1.70;;;16.50;98.00;;;;;;6288786;22;21061;-68
2021/05/06 14:52:36;;;;;;;1.73;1.00;;;16.10;97.60;;;;;;6286493;22;20849;-68
2021/05/06 14:55:02;;;;;;;4.87;1.50;;;15.80;98.90;;;;;;6285747;22;20602;-69
2021/05/06 14:57:27;;;;;;;3.37;1.20;;;15.80;98.90;;;;;;6287185;22;20163;-68
2021/05/06 14:59:53;;;;;;;2.53;1.50;;;15.90;99.90;;;;;;6289456;22;20636;-67
2021/05/06 15:02:18;;;;;;;2.93;1.40;;;16.20;99.50;;;;;;6291059;22;20159;-67
2021/05/06 15:04:44;;;;;;;1.57;1.20;;;16.20;96.80;;;;;;6306562;22;20622;-68
2021/05/06 15:07:10;;;;;;;3.67;1.23;;;16.10;96.80;;;;;;6282704;22;20250;-68
2021/05/06 15:09:36;;;;;;;3.53;1.20;;;15.90;96.20;;;;;;6287906;22;20161;-70
2021/05/06 15:12:02;;;;;;;4.43;1.40;;;15.80;97.30;;;;;;6311332;22;20178;-68
2021/05/06 15:14:28;;;;;;;2.60;1.37;;;15.60;97.40;;;;;;6282706;22;21282;-68
2021/05/06 15:16:53;;;;;;;2.17;1.33;;;15.60;97.00;;;;;;6284996;22;20557;-67
2021/05/06 15:19:19;;;;;;;2.23;1.20;;;15.40;97.50;;;;;;6290130;22;20241;-67
2021/05/06 15:21:45;;;;;;;2.80;1.50;;;15.40;97.90;;;;;;6283433;22;20542;-68
2021/05/06 15:24:11;;;;;;;1.97;1.33;;;15.40;98.00;;;;;;6287452;22;20603;-67
2021/05/06 15:26:37;;;;;;;1.20;1.10;;;15.20;97.50;;;;;;6286700;22;20623;-68
2021/05/06 15:29:05;;;;;;;4.37;1.50;;;15.00;97.10;;;;;;6285326;22;20536;-67
2021/05/06 15:31:32;;;;;;;1.50;1.13;;;14.90;97.10;;;;;;6314046;22;20268;-67
2021/05/06 15:34:00;;;;;;;2.13;1.53;;;14.80;99.40;;;;;;6285340;22;20749;-67
2021/05/06 15:36:29;;;;;;;2.50;1.77;;;14.60;99.60;;;;;;6284295;22;20653;-67
2021/05/06 15:38:55;;;;;;;3.53;1.57;;;14.70;99.90;;;;;;6285589;22;20544;-69
2021/05/06 15:41:23;;;;;;;2.40;1.20;;;14.60;99.30;;;;;;6289498;22;20800;-67
2021/05/06 15:43:48;;;;;;;4.30;2.60;;;14.60;99.90;;;;;;6287406;22;21107;-68
2021/05/06 15:46:16;;;;;;;2.03;1.30;;;14.60;99.90;;;;;;6287333;22;20762;-67
2021/05/06 15:48:41;;;;;;;2.87;1.47;;;14.60;99.90;;;;;;6285405;22;20154;-68
2021/05/06 15:51:07;;;;;;;2.50;1.60;;;14.60;99.60;;;;;;6310195;22;20702;-67
2021/05/06 15:53:35;;;;;;;2.37;1.50;;;14.50;99.40;;;;;;6287049;22;20198;-67
2021/05/06 15:56:02;;;;;;;2.80;1.10;;;14.40;99.50;;;;;;6283833;22;20201;-68
2021/05/06 15:58:32;;;;;;;2.63;1.37;;;14.30;99.00;;;;;;6310563;22;21121;-68
2021/05/06 16:01:00;;;;;;;2.33;1.10;;;14.20;98.70;;;;;;6291639;22;20504;-68
2021/05/06 16:03:27;;;;;;;3.20;1.60;;;14.00;99.90;;;;;;6288244;22;20618;-68
2021/05/06 16:05:55;;;;;;;2.17;1.23;;;13.90;99.90;;;;;;6314073;22;20933;-68
2021/05/06 16:08:23;;;;;;;2.60;1.23;;;13.80;99.90;;;;;;6285956;22;20677;-67